createdAt,value
2019-04-04T00:01:36.597Z,4.67
2019-04-04T00:04:07.720Z,4.47
2019-04-04T00:06:39.659Z,5.43
2019-04-04T00:09:11.747Z,4.87
2019-04-04T00:11:43.786Z,6.47
2019-04-04T00:14:15.346Z,5.20
2019-04-04T00:16:48.846Z,5.47
2019-04-04T00:19:19.595Z,4.70
2019-04-04T00:21:51.455Z,5.00
2019-04-04T00:24:24.156Z,5.40
2019-04-04T00:26:56.384Z,4.67
2019-04-04T00:29:28.422Z,5.20
2019-04-04T00:32:00.059Z,4.93
2019-04-04T00:34:32.400Z,5.60
2019-04-04T00:37:05.260Z,4.93
2019-04-04T00:39:37.999Z,5.40
2019-04-04T00:42:11.078Z,5.17
2019-04-04T00:44:42.722Z,4.93
2019-04-04T00:47:16.474Z,5.27
2019-04-04T00:49:49.076Z,5.07
2019-04-04T00:52:19.733Z,5.40
2019-04-04T00:54:50.924Z,5.70
2019-04-04T00:57:22.340Z,5.53
2019-04-04T00:59:54.009Z,5.30
2019-04-04T01:02:27.583Z,4.63
2019-04-04T01:05:01.343Z,5.60
2019-04-04T01:07:32.148Z,5.87
2019-04-04T01:10:03.403Z,6.37
2019-04-04T01:12:35.423Z,6.77
2019-04-04T01:15:07.469Z,6.60
2019-04-04T01:17:39.498Z,5.80
2019-04-04T01:20:11.468Z,6.10
2019-04-04T01:22:43.478Z,5.27
2019-04-04T01:25:14.645Z,6.37
2019-04-04T01:27:47.216Z,5.70
2019-04-04T01:30:19.325Z,5.40
2019-04-04T01:32:50.952Z,5.97
2019-04-04T01:35:23.567Z,6.30
2019-04-04T01:37:57.848Z,5.90
2019-04-04T01:40:28.127Z,8.07
2019-04-04T01:42:59.861Z,6.13
2019-04-04T01:45:49.985Z,6.43
2019-04-04T01:48:22.620Z,6.60
2019-04-04T01:50:54.302Z,5.63
2019-04-04T01:53:28.076Z,5.83
2019-04-04T01:55:59.197Z,6.33
2019-04-04T01:58:31.993Z,6.60
2019-04-04T02:01:04.555Z,6.27
2019-04-04T02:03:36.884Z,5.77
2019-04-04T02:06:09.342Z,6.57
2019-04-04T02:08:41.004Z,7.23
2019-04-04T02:11:12.438Z,6.50
2019-04-04T02:13:44.238Z,7.60
2019-04-04T02:16:16.972Z,7.53
2019-04-04T02:18:49.500Z,9.57
2019-04-04T02:21:21.044Z,17.40
2019-04-04T02:23:52.707Z,21.67
2019-04-04T02:26:23.353Z,19.40
2019-04-04T02:28:54.493Z,18.10
2019-04-04T02:31:27.415Z,19.40
2019-04-04T02:33:58.320Z,15.93
2019-04-04T02:36:30.337Z,13.70
2019-04-04T02:39:19.814Z,13.23
2019-04-04T02:41:52.034Z,12.20
2019-04-04T02:44:23.312Z,8.93
2019-04-04T02:46:54.759Z,9.47
2019-04-04T02:49:29.199Z,9.43
2019-04-04T02:51:59.493Z,7.87
2019-04-04T02:54:31.311Z,8.07
2019-04-04T02:57:07.949Z,8.03
2019-04-04T02:59:37.267Z,9.87
2019-04-04T03:02:09.057Z,7.50
2019-04-04T03:04:45.821Z,8.77
2019-04-04T03:07:15.080Z,7.87
2019-04-04T03:09:46.324Z,7.17
2019-04-04T03:12:17.885Z,5.80
2019-04-04T03:14:50.632Z,6.20
2019-04-04T03:17:23.364Z,5.90
2019-04-04T03:19:54.605Z,7.43
2019-04-04T03:22:27.622Z,7.10
2019-04-04T03:25:00.233Z,6.23
2019-04-04T03:27:31.468Z,6.10
2019-04-04T03:30:03.726Z,5.93
2019-04-04T03:32:34.685Z,5.47
2019-04-04T03:35:06.443Z,5.90
2019-04-04T03:37:40.442Z,6.00
2019-04-04T03:40:11.594Z,5.83
2019-04-04T03:42:44.343Z,5.40
2019-04-04T03:45:16.683Z,5.40
2019-04-04T03:47:48.217Z,5.83
2019-04-04T03:50:19.862Z,5.70
2019-04-04T03:52:52.366Z,6.37
2019-04-04T03:55:27.443Z,5.73
2019-04-04T03:57:57.103Z,5.77
2019-04-04T04:00:29.283Z,5.83
2019-04-04T04:03:01.350Z,6.33
2019-04-04T04:05:35.575Z,5.33
2019-04-04T04:08:04.892Z,6.70
2019-04-04T04:10:35.411Z,9.27
2019-04-04T04:13:06.013Z,9.93
2019-04-04T04:15:37.666Z,8.53
2019-04-04T04:18:08.140Z,7.77
2019-04-04T04:20:38.726Z,7.93
2019-04-04T04:23:09.368Z,8.33
2019-04-04T04:25:40.362Z,7.73
2019-04-04T04:28:11.545Z,7.53
2019-04-04T04:30:42.244Z,7.57
2019-04-04T04:33:12.946Z,7.70
2019-04-04T04:35:43.405Z,5.83
2019-04-04T04:38:14.677Z,7.77
2019-04-04T04:40:48.170Z,9.77
2019-04-04T04:43:21.615Z,10.37
2019-04-04T04:45:52.438Z,10.70
2019-04-04T04:48:25.785Z,11.73
2019-04-04T04:50:55.706Z,14.90
2019-04-04T04:53:26.352Z,13.53
2019-04-04T04:55:59.604Z,14.30
2019-04-04T04:58:31.284Z,16.17
2019-04-04T05:01:02.349Z,16.47
2019-04-04T05:03:33.123Z,16.87
2019-04-04T05:06:04.104Z,13.97
2019-04-04T05:08:34.938Z,17.73
2019-04-04T05:11:06.064Z,14.13
2019-04-04T05:13:37.124Z,13.50
2019-04-04T05:16:08.958Z,12.30
2019-04-04T05:18:40.267Z,11.87
2019-04-04T05:21:19.428Z,10.37
2019-04-04T05:23:44.961Z,10.70
2019-04-04T05:26:16.257Z,9.00
2019-04-04T05:28:46.729Z,10.57
2019-04-04T05:31:18.148Z,10.80
2019-04-04T05:33:49.566Z,11.10
2019-04-04T05:36:20.534Z,11.30
2019-04-04T05:38:51.515Z,10.10
2019-04-04T05:41:22.370Z,12.18
2019-04-04T05:43:55.011Z,9.23
2019-04-04T05:46:25.546Z,8.40
2019-04-04T05:48:57.653Z,7.43
2019-04-04T05:51:28.805Z,7.27
2019-04-04T05:54:00.381Z,7.70
2019-04-04T05:56:31.274Z,7.43
2019-04-04T05:59:02.445Z,7.00
2019-04-04T06:01:35.273Z,6.77
2019-04-04T06:04:06.392Z,7.20
2019-04-04T06:06:37.892Z,7.20
2019-04-04T06:09:09.253Z,7.87
2019-04-04T06:11:40.302Z,7.03
2019-04-04T06:14:11.278Z,8.10
2019-04-04T06:16:42.654Z,7.67
2019-04-04T06:19:14.761Z,8.10
2019-04-04T06:21:50.029Z,8.47
2019-04-04T06:24:20.743Z,7.17
2019-04-04T06:26:54.152Z,8.10
2019-04-04T06:29:25.640Z,7.70
2019-04-04T06:31:59.891Z,7.60
2019-04-04T06:34:28.538Z,6.80
2019-04-04T06:36:59.191Z,6.70
2019-04-04T06:39:31.089Z,7.10
2019-04-04T06:42:03.298Z,8.20
2019-04-04T06:44:34.745Z,7.43
2019-04-04T06:47:05.411Z,6.43
2019-04-04T06:49:36.226Z,7.63
2019-04-04T07:04:19.209Z,6.50
2019-04-04T07:06:50.205Z,6.50
2019-04-04T07:09:21.230Z,6.40
2019-04-04T07:11:53.156Z,6.80
2019-04-04T07:14:24.859Z,5.83
2019-04-04T07:16:56.070Z,6.23
2019-04-04T07:19:27.486Z,6.30
2019-04-04T07:22:00.361Z,5.83
2019-04-04T07:24:31.846Z,5.70
2019-04-04T07:27:05.681Z,5.73
2019-04-04T07:29:38.171Z,5.57
2019-04-04T07:32:10.089Z,6.33
2019-04-04T07:34:45.061Z,5.20
2019-04-04T07:37:15.364Z,19.60
2019-04-04T07:39:46.443Z,5.73
2019-04-04T07:42:17.640Z,5.77
2019-04-04T07:44:49.776Z,5.53
2019-04-04T07:47:22.962Z,6.57
2019-04-04T07:49:55.012Z,5.80
2019-04-04T07:52:26.824Z,5.57
2019-04-04T07:54:57.736Z,5.20
2019-04-04T07:57:30.236Z,6.13
2019-04-04T08:00:01.033Z,7.20
2019-04-04T08:02:31.804Z,5.97
2019-04-04T08:05:02.748Z,5.27
2019-04-04T08:07:36.685Z,6.53
2019-04-04T08:10:19.950Z,6.77
2019-04-04T08:12:42.083Z,6.67
2019-04-04T08:15:13.413Z,7.77
2019-04-04T08:17:44.509Z,7.17
2019-04-04T08:20:16.789Z,7.10
2019-04-04T08:22:48.751Z,6.50
2019-04-04T08:25:20.145Z,6.77
2019-04-04T08:27:51.057Z,5.87
2019-04-04T08:30:23.759Z,6.40
2019-04-04T08:32:55.125Z,6.63
2019-04-04T08:35:26.157Z,7.07
2019-04-04T08:37:57.106Z,5.67
2019-04-04T08:40:29.202Z,6.00
2019-04-04T08:43:00.305Z,6.30
2019-04-04T08:45:30.813Z,7.73
2019-04-04T08:48:01.352Z,7.63
2019-04-04T08:50:39.265Z,8.30
2019-04-04T08:53:10.565Z,7.20
2019-04-04T08:55:41.884Z,7.63
2019-04-04T08:58:13.861Z,7.43
2019-04-04T09:00:45.158Z,7.83
2019-04-04T09:03:20.491Z,8.90
2019-04-04T09:05:53.199Z,7.53
2019-04-04T09:08:23.738Z,8.40
2019-04-04T09:10:54.337Z,10.70
2019-04-04T09:13:25.692Z,8.13
2019-04-04T09:15:56.571Z,8.43
2019-04-04T09:18:27.755Z,7.27
2019-04-04T09:20:59.050Z,7.23
2019-04-04T09:26:20.666Z,11.17
2019-04-04T09:28:51.350Z,9.60
2019-04-04T09:31:22.812Z,9.73
2019-04-04T09:33:54.030Z,8.77
2019-04-04T09:36:25.058Z,7.50
2019-04-04T09:39:19.559Z,6.40
2019-04-04T09:41:51.312Z,10.35
2019-04-04T09:44:53.447Z,6.28
2019-04-04T10:20:02.881Z,5.70
2019-04-04T10:26:30.301Z,7.10
2019-04-04T10:33:56.132Z,7.13
2019-04-04T10:37:04.314Z,6.50
2019-04-04T10:40:23.438Z,5.57
2019-04-04T10:43:09.726Z,6.27
2019-04-04T10:49:31.892Z,6.60
2019-04-04T10:52:33.794Z,6.03
2019-04-04T10:55:38.696Z,6.00
2019-04-04T10:59:08.057Z,5.83
2019-04-04T11:02:24.470Z,5.93
2019-04-04T11:05:08.884Z,6.63
2019-04-04T11:08:17.244Z,5.47
2019-04-04T11:11:10.184Z,5.80
2019-04-04T11:14:20.861Z,5.63
2019-04-04T11:17:31.347Z,5.00
2019-04-04T11:20:14.679Z,5.87
2019-04-04T11:22:49.817Z,5.63
2019-04-04T11:25:29.153Z,6.20
2019-04-04T11:28:18.604Z,5.67
2019-04-04T11:30:58.158Z,5.50
2019-04-04T11:33:29.612Z,5.50
2019-04-04T11:36:19.800Z,6.10
2019-04-04T11:42:31.808Z,6.03
2019-04-04T11:45:07.707Z,6.80
2019-04-04T11:47:41.621Z,6.83
2019-04-04T11:50:24.683Z,6.90
2019-04-04T11:53:08.067Z,7.12
2019-04-04T11:55:47.595Z,10.03
2019-04-04T11:58:21.327Z,6.07
2019-04-04T12:00:55.518Z,6.17
2019-04-04T12:03:27.450Z,5.13
2019-04-04T12:06:01.956Z,5.33
2019-04-04T12:08:33.253Z,5.23
2019-04-04T12:11:07.848Z,5.00
2019-04-04T12:13:40.784Z,4.83
2019-04-04T12:16:17.641Z,4.90
2019-04-04T12:18:50.941Z,4.87
2019-04-04T12:21:27.455Z,5.50
2019-04-04T12:23:59.213Z,5.30
2019-04-04T12:26:33.082Z,4.77
2019-04-04T12:29:09.084Z,5.00
2019-04-04T12:31:40.392Z,4.77
2019-04-04T12:34:13.565Z,4.70
2019-04-04T12:36:45.145Z,4.50
2019-04-04T12:39:18.362Z,4.20
2019-04-04T12:41:52.443Z,4.53
2019-04-04T12:44:24.094Z,4.87
2019-04-04T12:46:56.689Z,4.80
2019-04-04T12:49:29.471Z,9.47
2019-04-04T12:52:05.436Z,6.40
2019-04-04T12:54:37.956Z,4.83
2019-04-04T12:57:09.978Z,4.60
2019-04-04T12:59:46.549Z,4.93
2019-04-04T13:14:18.337Z,5.53
2019-04-04T13:17:11.852Z,5.60
2019-04-04T13:19:57.816Z,5.27
2019-04-04T13:23:12.214Z,5.70
2019-04-04T13:26:18.614Z,6.53
2019-04-04T13:29:50.622Z,6.40
2019-04-04T13:33:02.924Z,6.13
2019-04-04T13:39:23.485Z,5.90
2019-04-04T13:49:58.151Z,5.67
2019-04-04T13:52:55.957Z,6.03
2019-04-04T14:04:38.101Z,6.10
2019-04-04T14:08:14.268Z,6.40
2019-04-04T14:10:57.498Z,6.20
2019-04-04T14:13:58.624Z,6.58
2019-04-04T14:16:29.004Z,6.05
2019-04-04T14:19:33.506Z,7.40
2019-04-04T14:22:06.780Z,7.53
2019-04-04T14:24:37.892Z,5.00
2019-04-04T14:27:08.502Z,5.77
2019-04-04T14:29:40.460Z,5.80
2019-04-04T14:32:11.678Z,5.77
2019-04-04T14:34:42.720Z,6.23
2019-04-04T14:37:14.300Z,6.20
2019-04-04T14:39:45.142Z,8.53
2019-04-04T14:42:16.163Z,7.62
2019-04-04T14:44:47.539Z,6.20
2019-04-04T14:47:19.174Z,6.90
2019-04-04T14:49:50.091Z,20.82
2019-04-04T14:52:20.866Z,6.77
2019-04-04T14:54:51.995Z,6.30
2019-04-04T14:57:22.574Z,6.73
2019-04-04T14:59:53.724Z,7.10
2019-04-04T15:02:24.290Z,6.60
2019-04-04T15:04:54.862Z,6.60
2019-04-04T15:07:23.507Z,6.20
2019-04-04T15:09:54.546Z,5.43
2019-04-04T15:12:25.552Z,6.67
2019-04-04T15:14:56.832Z,9.83
2019-04-04T15:17:27.738Z,6.20
2019-04-04T15:19:58.761Z,6.23
2019-04-04T15:22:31.835Z,6.13
2019-04-04T15:25:02.543Z,5.60
2019-04-04T15:27:34.042Z,6.23
2019-04-04T15:30:05.295Z,5.63
2019-04-04T15:32:35.943Z,6.13
2019-04-04T15:35:07.749Z,5.20
2019-04-04T15:37:38.750Z,5.87
2019-04-04T15:40:09.915Z,6.77
2019-04-04T15:42:40.941Z,5.40
2019-04-04T15:45:11.979Z,5.77
2019-04-04T15:47:42.455Z,5.80
2019-04-04T15:50:14.262Z,5.80
2019-04-04T15:52:44.911Z,5.03
2019-04-04T15:55:15.975Z,5.23
2019-04-04T15:57:46.956Z,6.10
2019-04-04T16:00:18.463Z,7.17
2019-04-04T16:02:49.810Z,5.20
2019-04-04T16:05:21.375Z,5.63
2019-04-04T16:07:52.092Z,5.70
2019-04-04T16:10:22.696Z,6.77
2019-04-04T16:12:54.067Z,5.70
2019-04-04T16:15:25.178Z,5.33
2019-04-04T16:17:56.405Z,6.50
2019-04-04T16:20:27.454Z,6.17
2019-04-04T16:22:58.927Z,5.83
2019-04-04T16:25:29.792Z,5.60
2019-04-04T16:28:01.238Z,5.53
2019-04-04T16:30:32.190Z,7.17
2019-04-04T16:33:03.320Z,7.30
2019-04-04T16:35:34.356Z,8.13
2019-04-04T16:38:06.509Z,6.80
2019-04-04T16:40:37.096Z,7.87
2019-04-04T16:43:08.909Z,8.17
2019-04-04T16:45:39.422Z,7.73
2019-04-04T16:48:10.028Z,8.90
2019-04-04T16:50:41.095Z,7.80
2019-04-04T16:53:12.556Z,8.10
2019-04-04T16:55:50.819Z,21.43
2019-04-04T16:58:21.878Z,9.37
2019-04-04T17:00:53.172Z,9.60
2019-04-04T17:03:24.238Z,8.97
2019-04-04T17:05:54.958Z,9.23
2019-04-04T17:08:26.135Z,9.20
2019-04-04T17:10:57.633Z,9.53
2019-04-04T17:13:28.892Z,9.80
2019-04-04T17:16:00.456Z,10.33
2019-04-04T17:18:31.836Z,10.00
2019-04-04T17:21:03.443Z,10.87
2019-04-04T17:23:34.681Z,9.87
2019-04-04T17:26:06.039Z,11.47
2019-04-04T17:28:36.897Z,10.50
2019-04-04T17:31:08.434Z,10.70
2019-04-04T17:33:39.775Z,11.70
2019-04-04T17:36:10.690Z,11.33
2019-04-04T17:38:41.605Z,14.00
2019-04-04T17:41:12.269Z,16.13
2019-04-04T17:43:42.852Z,16.50
2019-04-04T17:46:13.684Z,10.53
2019-04-04T17:48:45.032Z,10.03
2019-04-04T17:51:16.225Z,8.23
2019-04-04T17:53:47.912Z,8.10
2019-04-04T17:56:19.038Z,7.47
2019-04-04T17:58:49.674Z,7.73
2019-04-04T18:01:20.585Z,6.73
2019-04-04T18:03:52.402Z,7.50
2019-04-04T18:06:25.245Z,8.00
2019-04-04T18:08:55.842Z,7.17
2019-04-04T18:11:26.448Z,7.20
2019-04-04T18:13:57.720Z,8.03
2019-04-04T18:16:28.366Z,8.03
2019-04-04T18:18:58.925Z,7.60
2019-04-04T18:21:29.815Z,7.60
2019-04-04T18:24:02.039Z,8.10
2019-04-04T18:26:33.512Z,7.87
2019-04-04T18:29:05.969Z,9.30
2019-04-04T18:31:36.489Z,8.90
2019-04-04T18:34:09.631Z,8.37
2019-04-04T18:36:40.494Z,8.40
2019-04-04T18:39:11.922Z,9.10
2019-04-04T18:41:43.153Z,7.93
2019-04-04T18:44:14.155Z,9.47
2019-04-04T18:46:46.410Z,10.33
2019-04-04T18:49:17.708Z,12.23
2019-04-04T18:51:49.083Z,11.43
2019-04-04T18:54:20.059Z,11.50
2019-04-04T18:56:51.627Z,10.80
2019-04-04T18:59:22.615Z,9.33
2019-04-04T19:01:53.605Z,9.03
2019-04-04T19:04:25.143Z,8.27
2019-04-04T19:06:56.192Z,7.90
2019-04-04T19:09:27.196Z,8.90
2019-04-04T19:11:58.155Z,9.00
2019-04-04T19:14:29.191Z,8.83
2019-04-04T19:17:00.143Z,8.23
2019-04-04T19:19:30.997Z,8.27
2019-04-04T19:22:01.558Z,9.10
2019-04-04T19:24:32.940Z,9.57
2019-04-04T19:27:04.902Z,8.97
2019-04-04T19:29:36.839Z,8.90
2019-04-04T19:32:08.015Z,8.30
2019-04-04T19:34:39.355Z,7.20
2019-04-04T19:37:10.563Z,8.03
2019-04-04T19:39:44.148Z,7.67
2019-04-04T19:42:15.583Z,8.23
2019-04-04T19:44:53.244Z,8.37
2019-04-04T19:47:20.932Z,8.07
2019-04-04T19:49:52.525Z,7.57
2019-04-04T19:52:23.451Z,8.33
2019-04-04T19:54:55.974Z,7.80
2019-04-04T19:57:27.832Z,8.10
2019-04-04T20:00:01.020Z,8.70
2019-04-04T20:02:31.884Z,8.10
2019-04-04T20:05:02.772Z,8.20
2019-04-04T20:07:34.274Z,8.97
2019-04-04T20:10:05.983Z,9.40
2019-04-04T20:12:36.691Z,8.70
2019-04-04T20:15:08.020Z,9.03
2019-04-04T20:17:38.830Z,10.10
2019-04-04T20:20:09.908Z,9.13
2019-04-04T20:25:12.046Z,8.93
2019-04-04T20:27:54.122Z,9.47
2019-04-04T20:30:15.992Z,9.70
2019-04-04T20:32:47.041Z,9.60
2019-04-04T20:35:17.786Z,9.47
2019-04-04T20:37:49.374Z,8.87
2019-04-04T20:40:20.482Z,8.80
2019-04-04T20:42:52.243Z,8.33
2019-04-04T20:45:24.320Z,8.73
2019-04-04T20:47:57.919Z,9.37
2019-04-04T20:50:29.491Z,8.67
2019-04-04T20:53:00.362Z,8.43
2019-04-04T20:55:32.370Z,7.67
2019-04-04T20:58:04.858Z,8.20
2019-04-04T21:00:36.411Z,9.03
2019-04-04T21:03:08.487Z,8.40
2019-04-04T21:05:40.735Z,8.77
2019-04-04T21:08:11.950Z,8.60
2019-04-04T21:10:43.303Z,8.33
2019-04-04T21:13:14.337Z,8.20
2019-04-04T21:15:47.259Z,9.50
2019-04-04T21:18:19.148Z,8.03
2019-04-04T21:20:50.374Z,8.87
2019-04-04T21:23:22.550Z,8.10
2019-04-04T21:25:54.322Z,8.67
2019-04-04T21:28:25.101Z,8.40
2019-04-04T21:30:56.688Z,8.63
2019-04-04T21:33:28.720Z,8.13
2019-04-04T21:36:00.301Z,8.13
2019-04-04T21:38:32.997Z,7.73
2019-04-04T21:41:05.077Z,8.17
2019-04-04T21:43:36.964Z,9.30
2019-04-04T21:46:08.815Z,7.90
2019-04-04T21:48:42.059Z,8.87
2019-04-04T21:51:14.336Z,7.80
2019-04-04T21:53:46.428Z,8.47
2019-04-04T21:56:17.750Z,8.37
2019-04-04T21:58:49.026Z,7.97
2019-04-04T22:01:20.644Z,8.83
2019-04-04T22:03:51.870Z,7.93
2019-04-04T22:06:23.693Z,8.70
2019-04-04T22:08:54.919Z,8.53
2019-04-04T22:11:26.116Z,8.37
2019-04-04T22:13:57.004Z,8.17
2019-04-04T22:16:28.743Z,7.60
2019-04-04T22:19:00.195Z,8.20
2019-04-04T22:21:32.016Z,8.77
2019-04-04T22:24:04.092Z,8.87
2019-04-04T22:26:35.862Z,9.83
2019-04-04T22:29:08.112Z,10.23
2019-04-04T22:31:39.525Z,9.70
2019-04-04T22:34:12.388Z,8.80
2019-04-04T22:36:43.648Z,9.23
2019-04-04T22:39:14.860Z,8.70
2019-04-04T22:41:46.210Z,9.13
2019-04-04T22:44:18.051Z,9.80
2019-04-04T22:46:49.893Z,9.13
2019-04-04T22:49:21.240Z,9.60
2019-04-04T22:51:52.752Z,9.60
2019-04-04T22:54:24.330Z,9.60
2019-04-04T22:56:55.817Z,9.70
2019-04-04T22:59:26.975Z,9.97
2019-04-04T23:01:59.566Z,10.57
2019-04-04T23:04:31.390Z,10.53
2019-04-04T23:07:03.780Z,10.23
2019-04-04T23:09:35.760Z,8.63
2019-04-04T23:12:07.193Z,10.10
2019-04-04T23:14:48.096Z,10.17
2019-04-04T23:17:12.145Z,9.80
2019-04-04T23:19:43.780Z,9.87
2019-04-04T23:22:15.224Z,8.90
2019-04-04T23:24:46.221Z,9.33
2019-04-04T23:27:17.678Z,10.07
2019-04-04T23:29:49.768Z,9.60
2019-04-04T23:32:21.587Z,9.13
2019-04-04T23:34:52.482Z,8.87
2019-04-04T23:37:23.758Z,9.20
2019-04-04T23:39:55.087Z,9.13
2019-04-04T23:42:26.955Z,9.23
2019-04-04T23:45:01.280Z,10.10
2019-04-04T23:47:41.916Z,8.80
2019-04-04T23:50:05.329Z,9.67
2019-04-04T23:52:37.211Z,10.67
2019-04-04T23:55:08.826Z,9.47
2019-04-04T23:57:40.737Z,9.77
